createdAt,value
2023-03-28T00:00:10.588Z,1644.0000
2023-03-28T00:01:12.068Z,1642.6923
2023-03-28T00:02:13.408Z,1645.4615
2023-03-28T00:03:14.834Z,1648.9231
2023-03-28T00:04:16.353Z,1650.6154
2023-03-28T00:05:17.707Z,1652.2307
2023-03-28T00:06:19.238Z,1653.5385
2023-03-28T00:07:20.538Z,1655.1538
2023-03-28T00:08:21.975Z,1655.0000
2023-03-28T00:09:23.414Z,1655.5385
2023-03-28T00:10:24.808Z,1656.2307
2023-03-28T00:11:26.239Z,1660.3846
2023-03-28T00:12:27.760Z,1660.3846
2023-03-28T00:13:29.076Z,1661.9231
2023-03-28T00:14:30.492Z,1664.5385
2023-03-28T00:15:31.964Z,1664.6923
2023-03-28T00:16:33.434Z,1666.2307
2023-03-28T00:17:34.782Z,1666.6923
2023-03-28T00:18:36.199Z,1667.4615
2023-03-28T00:19:37.612Z,1668.0000
2023-03-28T00:20:39.093Z,1669.2307
2023-03-28T00:21:40.468Z,1669.3846
2023-03-28T00:22:41.916Z,1668.9231
2023-03-28T00:23:43.336Z,1670.1538
2023-03-28T00:24:44.768Z,1672.4615
2023-03-28T00:25:46.190Z,1673.1538
2023-03-28T00:26:47.636Z,1672.6154
2023-03-28T00:27:49.042Z,1675.3846
2023-03-28T00:28:50.483Z,1680.1538
2023-03-28T00:29:51.896Z,1683.0000
2023-03-28T00:30:53.392Z,1680.0769
2023-03-28T00:31:54.730Z,1678.0000
2023-03-28T00:32:56.199Z,1674.7693
2023-03-28T00:33:57.578Z,1674.4615
2023-03-28T00:34:59.051Z,1672.6923
2023-03-28T00:36:00.680Z,1674.7693
2023-03-28T00:37:01.849Z,1676.7693
2023-03-28T00:38:03.281Z,1678.6154
2023-03-28T00:39:04.736Z,1683.7693
2023-03-28T00:40:06.118Z,1684.9231
2023-03-28T00:41:07.539Z,1682.9231
2023-03-28T00:42:08.946Z,1685.7693
2023-03-28T00:43:10.387Z,1687.0769
2023-03-28T00:44:11.815Z,1688.0769
2023-03-28T00:45:13.234Z,1684.7693
2023-03-28T00:46:14.827Z,1684.6154
2023-03-28T00:47:16.088Z,1686.6923
2023-03-28T00:48:17.587Z,1685.8462
2023-03-28T00:49:18.946Z,1688.5385
2023-03-28T00:50:20.431Z,1688.8462
2023-03-28T00:51:21.794Z,1691.5385
2023-03-28T00:52:23.213Z,1691.0769
2023-03-28T00:53:24.690Z,1691.5385
2023-03-28T00:54:26.053Z,1693.4615
2023-03-28T00:55:27.532Z,1695.3846
2023-03-28T00:56:28.904Z,1695.4615
2023-03-28T00:57:30.339Z,1694.4615
2023-03-28T00:58:31.748Z,1696.2307
2023-03-28T00:59:33.202Z,1697.6923
2023-03-28T01:00:34.584Z,1697.3077
2023-03-28T01:01:36.033Z,1695.3077
2023-03-28T01:02:37.522Z,1694.4615
2023-03-28T01:03:38.993Z,1695.7693
2023-03-28T01:04:40.328Z,1699.3846
2023-03-28T01:05:41.711Z,1702.9231
2023-03-28T01:06:43.108Z,1704.6923
2023-03-28T01:07:44.533Z,1704.7693
2023-03-28T01:08:46.039Z,1702.3846
2023-03-28T01:09:47.384Z,1697.0769
2023-03-28T01:10:48.785Z,1697.9231
2023-03-28T01:11:50.225Z,1704.6923
2023-03-28T01:12:51.663Z,1709.6923
2023-03-28T01:13:53.147Z,1709.2307
2023-03-28T01:14:54.500Z,1714.5385
2023-03-28T01:15:55.968Z,1715.9231
2023-03-28T01:16:57.403Z,1713.7693
2023-03-28T01:17:58.851Z,1712.3077
2023-03-28T01:19:00.189Z,1713.2307
2023-03-28T01:20:01.640Z,1712.0769
2023-03-28T01:21:03.039Z,1708.8462
2023-03-28T01:22:04.468Z,1714.6923
2023-03-28T01:23:05.909Z,1717.3077
2023-03-28T01:24:11.459Z,1716.3077
2023-03-28T01:25:08.730Z,1712.1666
2023-03-28T01:26:10.155Z,1712.3077
2023-03-28T01:27:11.592Z,1712.5385
2023-03-28T01:28:13.027Z,1714.8462
2023-03-28T01:29:14.426Z,1714.1538
2023-03-28T01:30:15.854Z,1713.1538
2023-03-28T01:31:17.286Z,1720.0000
2023-03-28T01:32:18.733Z,1722.6154
2023-03-28T01:33:20.098Z,1725.0000
2023-03-28T01:34:21.533Z,1727.2307
2023-03-28T01:35:22.944Z,1727.0000
2023-03-28T01:36:33.804Z,1724.0000
2023-03-28T01:37:25.885Z,1724.3334
2023-03-28T01:38:27.236Z,1723.3077
2023-03-28T01:39:28.637Z,1723.7693
2023-03-28T01:40:30.075Z,1723.7693
2023-03-28T01:41:31.477Z,1724.4615
2023-03-28T01:42:32.910Z,1725.1538
2023-03-28T01:43:34.350Z,1722.6923
2023-03-28T01:44:35.738Z,1719.0769
2023-03-28T01:45:37.236Z,1719.7693
2023-03-28T01:46:38.617Z,1728.0769
2023-03-28T01:47:40.052Z,1734.1538
2023-03-28T01:48:41.442Z,1730.1538
2023-03-28T01:49:42.852Z,1729.4615
2023-03-28T01:50:44.282Z,1730.6154
2023-03-28T01:51:45.707Z,1736.6154
2023-03-28T01:52:47.164Z,1739.0769
2023-03-28T01:53:48.607Z,1742.3077
2023-03-28T01:54:49.970Z,1733.3846
2023-03-28T01:55:51.386Z,1733.8462
2023-03-28T01:56:52.917Z,1736.6154
2023-03-28T01:57:54.240Z,1742.4615
2023-03-28T01:58:55.664Z,1740.0769
2023-03-28T01:59:57.072Z,1740.6923
2023-03-28T02:00:58.560Z,1740.6923
2023-03-28T02:01:59.943Z,1740.4615
2023-03-28T02:03:01.452Z,1741.3846
2023-03-28T02:04:02.759Z,1744.4615
2023-03-28T02:05:04.210Z,1744.3846
2023-03-28T02:06:05.620Z,1743.4615
2023-03-28T02:07:07.124Z,1744.3077
2023-03-28T02:08:08.600Z,1746.9231
2023-03-28T02:09:09.972Z,1746.2307
2023-03-28T02:10:11.372Z,1746.0769
2023-03-28T02:11:12.837Z,1747.1538
2023-03-28T02:12:14.235Z,1747.6154
2023-03-28T02:13:15.658Z,1747.7693
2023-03-28T02:14:17.077Z,1747.9231
2023-03-28T02:15:18.508Z,1748.3077
2023-03-28T02:16:19.943Z,1746.3077
2023-03-28T02:17:21.385Z,1746.7693
2023-03-28T02:18:22.749Z,1746.3077
2023-03-28T02:19:24.191Z,1748.1538
2023-03-28T02:20:25.613Z,1748.2307
2023-03-28T02:21:27.045Z,1749.7693
2023-03-28T02:22:28.464Z,1751.6923
2023-03-28T02:23:29.895Z,1756.5385
2023-03-28T02:24:31.302Z,1760.8462
2023-03-28T02:25:32.818Z,1764.3846
2023-03-28T02:26:34.162Z,1763.1538
2023-03-28T02:27:35.614Z,1767.8462
2023-03-28T02:28:37.017Z,1770.5385
2023-03-28T02:29:38.428Z,1770.1538
2023-03-28T02:30:39.840Z,1769.8462
2023-03-28T02:31:41.324Z,1767.9231
2023-03-28T02:32:42.777Z,1769.3077
2023-03-28T02:33:44.126Z,1774.0000
2023-03-28T02:34:45.548Z,1772.8462
2023-03-28T02:35:47.090Z,1770.0769
2023-03-28T02:36:48.428Z,1770.0000
2023-03-28T02:37:49.828Z,1769.6154
2023-03-28T02:38:51.303Z,1767.9231
2023-03-28T02:39:52.664Z,1767.2307
2023-03-28T02:40:54.088Z,1768.2307
2023-03-28T02:41:55.536Z,1768.1538
2023-03-28T02:42:56.977Z,1768.5385
2023-03-28T02:43:58.378Z,1770.2307
2023-03-28T02:44:59.800Z,1775.6154
2023-03-28T02:46:01.449Z,1780.1538
2023-03-28T02:47:02.652Z,1782.0000
2023-03-28T02:48:04.089Z,1779.4615
2023-03-28T02:49:05.478Z,1777.6154
2023-03-28T02:50:06.921Z,1781.3846
2023-03-28T02:51:08.352Z,1785.0000
2023-03-28T02:52:09.766Z,1784.7693
2023-03-28T02:53:11.188Z,1785.3077
2023-03-28T02:54:12.604Z,1785.6154
2023-03-28T02:55:14.009Z,1784.7693
2023-03-28T02:56:15.459Z,1783.6923
2023-03-28T02:57:17.034Z,1782.8462
2023-03-28T02:58:18.277Z,1782.0769
2023-03-28T02:59:19.706Z,1783.0000
2023-03-28T03:00:21.130Z,1783.2307
2023-03-28T03:01:22.581Z,1785.3077
2023-03-28T03:02:24.046Z,1788.4615
2023-03-28T03:03:25.411Z,1793.7693
2023-03-28T03:04:26.802Z,1797.3077
2023-03-28T03:05:28.233Z,1798.4615
2023-03-28T03:06:29.649Z,1800.2307
2023-03-28T03:07:31.076Z,1800.5385
2023-03-28T03:08:32.496Z,1799.1538
2023-03-28T03:09:33.934Z,1800.6154
2023-03-28T03:10:35.336Z,1800.4615
2023-03-28T03:11:36.808Z,1800.0769
2023-03-28T03:12:38.190Z,1801.4615
2023-03-28T03:13:39.628Z,1798.8462
2023-03-28T03:14:41.045Z,1793.9231
2023-03-28T03:15:42.493Z,1793.6154
2023-03-28T03:16:43.937Z,1793.0769
2023-03-28T03:17:45.368Z,1791.8462
2023-03-28T03:18:46.741Z,1793.6923
2023-03-28T03:19:48.185Z,1793.6154
2023-03-28T03:20:49.609Z,1788.2307
2023-03-28T03:21:51.017Z,1784.4615
2023-03-28T03:22:52.455Z,1784.0769
2023-03-28T03:23:53.892Z,1784.5385
2023-03-28T03:24:55.291Z,1781.9231
2023-03-28T03:25:56.813Z,1785.4615
2023-03-28T03:26:58.144Z,1804.4615
2023-03-28T03:27:59.586Z,1802.0000
2023-03-28T03:29:01.005Z,1796.6154
2023-03-28T03:30:02.414Z,1794.6154
2023-03-28T03:31:03.906Z,1795.3846
2023-03-28T03:32:05.268Z,1801.9231
2023-03-28T03:33:06.780Z,1804.6154
2023-03-28T03:34:08.140Z,1807.6923
2023-03-28T03:35:09.588Z,1810.0000
2023-03-28T03:36:10.984Z,1815.0000
2023-03-28T03:37:12.394Z,1819.7693
2023-03-28T03:38:13.865Z,1825.8462
2023-03-28T03:39:15.244Z,1827.2307
2023-03-28T03:40:16.692Z,1829.6154
2023-03-28T03:41:18.104Z,1828.9231
2023-03-28T03:42:19.557Z,1832.3846
2023-03-28T03:43:20.955Z,1835.1538
2023-03-28T03:44:22.425Z,1837.6923
2023-03-28T03:45:23.791Z,1839.5385
2023-03-28T03:46:25.282Z,1836.3846
2023-03-28T03:47:26.671Z,1835.0769
2023-03-28T03:48:28.078Z,1838.1538
2023-03-28T03:49:29.530Z,1847.6154
2023-03-28T03:50:30.937Z,1845.2307
2023-03-28T03:51:32.353Z,1848.2307
2023-03-28T03:52:33.778Z,1849.6154
2023-03-28T03:53:35.218Z,1843.6923
2023-03-28T03:54:38.182Z,1843.0000
2023-03-28T03:55:38.058Z,1844.3077
2023-03-28T03:56:39.560Z,1842.0000
2023-03-28T03:57:40.872Z,1844.1538
2023-03-28T03:58:42.307Z,1846.7693
2023-03-28T03:59:43.709Z,1845.4615
2023-03-28T04:00:45.150Z,1845.6154
2023-03-28T04:01:46.584Z,1846.7693
2023-03-28T04:02:48.107Z,1846.7693
2023-03-28T04:03:49.428Z,1847.0769
2023-03-28T04:04:50.838Z,1849.2307
2023-03-28T04:05:52.266Z,1855.1538
2023-03-28T04:06:54.602Z,1852.1538
2023-03-28T04:07:55.295Z,1844.3846
2023-03-28T04:08:56.526Z,1837.6923
2023-03-28T04:09:57.956Z,1836.3846
2023-03-28T04:10:59.385Z,1834.9231
2023-03-28T04:12:00.770Z,1838.2307
2023-03-28T04:13:02.191Z,1845.3077
2023-03-28T04:14:03.606Z,1849.9231
2023-03-28T04:15:05.063Z,1865.8462
2023-03-28T04:16:06.464Z,1868.2307
2023-03-28T04:17:07.897Z,1858.5385
2023-03-28T04:18:09.876Z,1856.3846
2023-03-28T04:19:10.797Z,1855.0769
2023-03-28T04:20:12.152Z,1853.0769
2023-03-28T04:21:13.598Z,1853.8462
2023-03-28T04:22:15.006Z,1852.5385
2023-03-28T04:23:16.423Z,1853.3846
2023-03-28T04:24:17.841Z,1843.0769
2023-03-28T04:25:19.281Z,1845.0769
2023-03-28T04:26:20.667Z,1839.3846
2023-03-28T04:27:22.103Z,1837.2307
2023-03-28T04:28:23.519Z,1842.5385
2023-03-28T04:29:25.017Z,1840.7693
2023-03-28T04:30:26.407Z,1842.6923
2023-03-28T04:31:27.839Z,1848.7693
2023-03-28T04:32:29.265Z,1853.3077
2023-03-28T04:33:30.653Z,1853.9231
2023-03-28T04:34:32.074Z,1856.3077
2023-03-28T04:35:33.589Z,1858.8462
2023-03-28T04:36:34.929Z,1863.6154
2023-03-28T04:37:36.328Z,1865.9231
2023-03-28T04:38:37.767Z,1869.9231
2023-03-28T04:39:39.174Z,1874.9231
2023-03-28T04:40:40.600Z,1873.3077
2023-03-28T04:41:42.119Z,1878.0769
2023-03-28T04:42:43.466Z,1895.3846
2023-03-28T04:43:44.889Z,1919.4615
2023-03-28T04:44:46.322Z,1932.9231
2023-03-28T04:45:47.782Z,1937.3846
2023-03-28T04:46:49.164Z,1937.5385
2023-03-28T04:47:50.618Z,1938.1538
2023-03-28T04:48:56.500Z,1942.2307
2023-03-28T04:49:53.454Z,1944.0834
2023-03-28T04:50:54.852Z,1945.4615
2023-03-28T04:51:56.278Z,1958.3846
2023-03-28T04:52:57.726Z,1964.3077
2023-03-28T04:53:59.119Z,1965.7693
2023-03-28T04:55:00.541Z,1972.0769
2023-03-28T04:56:02.157Z,1990.3846
2023-03-28T04:57:03.405Z,2003.3077
2023-03-28T04:58:04.826Z,2005.6154
2023-03-28T04:59:06.225Z,1998.6923
2023-03-28T05:00:07.682Z,1992.1538
2023-03-28T05:01:09.089Z,1987.5385
2023-03-28T05:02:10.553Z,1988.0769
2023-03-28T05:03:13.156Z,1975.5385
2023-03-28T05:04:13.346Z,1949.4615
2023-03-28T05:05:14.758Z,1929.7693
2023-03-28T05:06:16.198Z,1930.0769
2023-03-28T05:07:17.617Z,1925.3846
2023-03-28T05:08:19.063Z,1909.3077
2023-03-28T05:09:20.460Z,1881.8462
2023-03-28T05:10:21.941Z,1867.9231
2023-03-28T05:11:23.340Z,1858.9231
2023-03-28T05:12:24.761Z,1850.0769
2023-03-28T05:13:26.166Z,1854.0769
2023-03-28T05:14:27.597Z,1853.6154
2023-03-28T05:15:29.014Z,1851.6923
2023-03-28T05:16:30.512Z,1713.7693
2023-03-28T05:17:31.878Z,1169.5385
2023-03-28T05:18:33.275Z,810.0769
2023-03-28T05:19:34.692Z,645.2308
2023-03-28T05:20:36.132Z,548.8461
2023-03-28T05:21:37.552Z,502.7692
2023-03-28T05:22:39.047Z,675.5385
2023-03-28T05:23:40.415Z,942.7692
2023-03-28T05:24:41.842Z,1027.9231
2023-03-28T05:25:43.259Z,984.4615
2023-03-28T05:26:44.687Z,997.0769
2023-03-28T05:27:46.130Z,992.9231
2023-03-28T05:28:47.548Z,963.3846
2023-03-28T05:29:48.978Z,941.7692
2023-03-28T05:30:50.400Z,945.7692
2023-03-28T05:31:51.918Z,963.0000
2023-03-28T05:32:53.283Z,972.0769
2023-03-28T05:33:54.679Z,966.7692
2023-03-28T05:34:56.106Z,965.7692
2023-03-28T05:35:57.577Z,966.2308
2023-03-28T05:36:58.995Z,964.6154
2023-03-28T05:38:00.453Z,938.2308
2023-03-28T05:39:01.862Z,912.8461
2023-03-28T05:40:03.236Z,905.0769
2023-03-28T05:41:04.662Z,900.1539
2023-03-28T05:42:06.111Z,896.7692
2023-03-28T05:43:07.549Z,885.0769
2023-03-28T05:44:08.944Z,848.5385
2023-03-28T05:45:10.376Z,811.6154
2023-03-28T05:46:11.812Z,790.7692
2023-03-28T05:47:13.292Z,789.0769
2023-03-28T05:48:14.654Z,788.3077
2023-03-28T05:49:16.087Z,805.8461
2023-03-28T05:50:17.519Z,824.6154
2023-03-28T05:51:18.939Z,833.3077
2023-03-28T05:52:20.378Z,842.8461
2023-03-28T05:53:21.800Z,855.3846
2023-03-28T05:54:23.197Z,868.4615
2023-03-28T05:55:24.661Z,877.4615
2023-03-28T05:56:26.064Z,877.8461
2023-03-28T05:57:27.490Z,876.7692
2023-03-28T05:58:28.910Z,863.2308
2023-03-28T05:59:30.352Z,854.3077
2023-03-28T06:00:31.771Z,855.0769
2023-03-28T06:01:33.190Z,858.3846
2023-03-28T06:02:34.673Z,860.2308
2023-03-28T06:03:36.072Z,863.0000
2023-03-28T06:04:37.517Z,867.3077
2023-03-28T06:05:38.881Z,873.6154
2023-03-28T06:06:40.278Z,879.4615
2023-03-28T06:07:42.844Z,880.4615
2023-03-28T06:08:43.138Z,883.0769
2023-03-28T06:09:44.661Z,889.8461
2023-03-28T06:10:46.098Z,890.8461
2023-03-28T06:11:47.492Z,895.3077
2023-03-28T06:12:48.992Z,897.0769
2023-03-28T06:13:50.359Z,896.4615
2023-03-28T06:14:51.772Z,896.5385
2023-03-28T06:15:53.237Z,896.3077
2023-03-28T06:16:54.646Z,895.0769
2023-03-28T06:17:56.104Z,895.2308
2023-03-28T06:19:06.840Z,899.7692
2023-03-28T06:19:58.956Z,900.3333
2023-03-28T06:21:00.490Z,901.2308
2023-03-28T06:22:02.782Z,901.3846
2023-03-28T06:23:03.135Z,905.6154
2023-03-28T06:24:04.600Z,909.5385
2023-03-28T06:25:05.981Z,908.6154
2023-03-28T06:26:07.414Z,912.1539
2023-03-28T06:27:08.833Z,915.0000
2023-03-28T06:28:10.257Z,913.6154
2023-03-28T06:29:11.671Z,914.7692
2023-03-28T06:30:13.212Z,918.4615
2023-03-28T06:31:14.561Z,916.0769
2023-03-28T06:32:15.970Z,916.3077
2023-03-28T06:33:17.416Z,914.6923
2023-03-28T06:34:18.856Z,917.0769
2023-03-28T06:35:20.253Z,913.1539
2023-03-28T06:36:21.662Z,910.6923
2023-03-28T06:37:23.166Z,910.6923
2023-03-28T06:38:24.545Z,911.6154
2023-03-28T06:39:25.935Z,912.0000
2023-03-28T06:40:27.440Z,917.0000
2023-03-28T06:41:28.846Z,916.1539
2023-03-28T06:42:30.230Z,917.8461
2023-03-28T06:43:31.698Z,920.3077
2023-03-28T06:44:33.092Z,922.7692
2023-03-28T06:45:34.488Z,926.3077
2023-03-28T06:46:35.964Z,931.1539
2023-03-28T06:47:37.409Z,933.2308
2023-03-28T06:48:38.777Z,935.2308
2023-03-28T06:49:40.224Z,937.9231
2023-03-28T06:50:41.623Z,941.8461
2023-03-28T06:51:43.031Z,941.3846
2023-03-28T06:52:44.483Z,940.3846
2023-03-28T06:53:45.914Z,940.3077
2023-03-28T06:54:48.555Z,942.1539
2023-03-28T06:55:48.764Z,944.3846
2023-03-28T06:56:50.230Z,947.9231
2023-03-28T06:57:51.670Z,949.9231
2023-03-28T06:58:53.034Z,952.4615
2023-03-28T06:59:54.450Z,967.0769
2023-03-28T07:00:55.880Z,967.6923
2023-03-28T07:01:57.388Z,966.7692
2023-03-28T07:02:58.826Z,964.9231
2023-03-28T07:04:00.248Z,964.5385
2023-03-28T07:05:01.622Z,963.3077
2023-03-28T07:06:03.012Z,962.1539
2023-03-28T07:07:04.473Z,961.2308
2023-03-28T07:08:05.855Z,963.9231
2023-03-28T07:09:07.355Z,963.8461
2023-03-28T07:10:08.686Z,967.7692
2023-03-28T07:11:10.125Z,972.9231
2023-03-28T07:12:11.525Z,983.3077
2023-03-28T07:13:12.962Z,980.6923
2023-03-28T07:14:14.387Z,980.0000
2023-03-28T07:15:17.771Z,981.2308
2023-03-28T07:16:17.292Z,982.6923
2023-03-28T07:17:18.636Z,990.2308
2023-03-28T07:18:20.064Z,1002.3077
2023-03-28T07:19:21.527Z,1005.8461
2023-03-28T07:20:22.913Z,1009.3077
2023-03-28T07:21:24.338Z,1016.3846
2023-03-28T07:22:25.749Z,1025.5385
2023-03-28T07:23:27.164Z,1033.7693
2023-03-28T07:24:28.785Z,1037.7693
2023-03-28T07:25:29.996Z,1041.2307
2023-03-28T07:26:31.430Z,1045.9231
2023-03-28T07:27:32.863Z,1054.2307
2023-03-28T07:28:34.273Z,1062.6923
2023-03-28T07:29:35.748Z,1066.9231
2023-03-28T07:30:37.129Z,1083.9231
2023-03-28T07:31:38.582Z,1103.2307
2023-03-28T07:32:53.341Z,1110.2307
2023-03-28T07:33:41.423Z,1117.1666
2023-03-28T07:34:42.854Z,1117.4615
2023-03-28T07:35:44.251Z,1119.6154
2023-03-28T07:36:45.661Z,1124.4615
2023-03-28T07:37:47.065Z,1132.7693
2023-03-28T07:38:49.205Z,1153.6154
2023-03-28T07:39:49.935Z,1164.7693
2023-03-28T07:40:51.351Z,1172.8462
2023-03-28T07:41:52.755Z,1179.9231
2023-03-28T07:42:54.175Z,1189.7693
2023-03-28T07:43:55.617Z,1194.0769
2023-03-28T07:44:57.061Z,1202.3846
2023-03-28T07:45:58.448Z,1210.0769
2023-03-28T07:46:59.906Z,1212.3077
2023-03-28T07:48:01.296Z,1211.6923
2023-03-28T07:49:02.713Z,1216.0769
2023-03-28T07:50:04.139Z,1192.7693
2023-03-28T07:51:05.545Z,1176.3846
2023-03-28T07:52:06.958Z,1178.8462
2023-03-28T07:53:08.385Z,1178.6923
2023-03-28T07:54:09.803Z,1176.7693
2023-03-28T07:55:11.251Z,1193.8462
2023-03-28T07:56:12.711Z,1201.2307
2023-03-28T07:57:14.133Z,1199.6154
2023-03-28T07:58:15.473Z,1200.6154
2023-03-28T07:59:16.911Z,1198.3846
2023-03-28T08:00:18.342Z,1194.9231
2023-03-28T08:01:19.795Z,1180.7693
2023-03-28T08:02:21.229Z,1172.9231
2023-03-28T08:03:22.789Z,1172.3846
2023-03-28T08:04:24.033Z,1170.3077
2023-03-28T08:05:25.531Z,1168.0769
2023-03-28T08:06:32.358Z,1171.4615
2023-03-28T08:07:28.298Z,1174.6666
2023-03-28T08:08:29.712Z,1178.0769
2023-03-28T08:09:31.179Z,1181.1538
2023-03-28T08:10:32.553Z,1183.8462
2023-03-28T08:11:34.027Z,1184.0000
2023-03-28T08:12:35.414Z,1186.0769
2023-03-28T08:13:36.857Z,1192.8462
2023-03-28T08:14:38.248Z,1191.2307
2023-03-28T08:15:39.721Z,1192.6923
2023-03-28T08:16:41.091Z,1190.9231
2023-03-28T08:17:42.548Z,1189.6923
2023-03-28T08:18:43.986Z,1185.6923
2023-03-28T08:19:45.372Z,1182.2307
2023-03-28T08:20:46.795Z,1177.9231
2023-03-28T08:21:48.281Z,1178.2307
2023-03-28T08:22:49.669Z,1171.6923
2023-03-28T08:23:51.079Z,1168.3077
2023-03-28T08:24:52.502Z,1166.7693
2023-03-28T08:25:53.934Z,1163.2307
2023-03-28T08:26:55.372Z,1161.7693
2023-03-28T08:27:56.777Z,1160.9231
2023-03-28T08:28:58.257Z,1165.2307
2023-03-28T08:29:59.661Z,1161.7693
2023-03-28T08:31:01.217Z,1155.0000
2023-03-28T08:32:02.474Z,1151.9231
2023-03-28T08:33:04.186Z,1138.0000
2023-03-28T08:34:05.314Z,1043.9231
2023-03-28T08:35:06.729Z,896.6154
2023-03-28T08:36:08.184Z,783.0769
2023-03-28T08:37:09.574Z,726.2308
2023-03-28T08:38:11.527Z,682.9231
2023-03-28T08:39:12.428Z,662.0000
2023-03-28T08:40:13.862Z,640.9231
2023-03-28T08:41:15.269Z,633.3846
2023-03-28T08:42:16.713Z,599.2308
2023-03-28T08:43:18.147Z,547.5385
2023-03-28T08:44:19.589Z,515.3077
2023-03-28T08:45:20.999Z,500.3077
2023-03-28T08:46:22.432Z,534.2308
2023-03-28T08:47:23.823Z,634.6154
2023-03-28T08:48:25.286Z,637.0000
2023-03-28T08:49:26.696Z,606.9231
2023-03-28T08:50:28.122Z,575.2308
2023-03-28T08:51:29.530Z,563.0000
2023-03-28T08:52:30.965Z,557.9231
2023-03-28T08:53:32.439Z,566.7692
2023-03-28T08:54:33.808Z,589.3077
2023-03-28T08:55:35.227Z,606.3077
2023-03-28T08:56:36.677Z,614.9231
2023-03-28T08:57:38.107Z,621.2308
2023-03-28T08:58:39.512Z,628.1539
2023-03-28T08:59:40.915Z,634.3846
2023-03-28T09:00:42.371Z,636.4615
2023-03-28T09:01:43.779Z,638.6154
2023-03-28T09:02:45.285Z,642.1539
2023-03-28T09:03:46.705Z,651.9231
2023-03-28T09:04:48.048Z,661.0000
2023-03-28T09:05:49.514Z,660.4615
2023-03-28T09:06:50.908Z,661.0000
2023-03-28T09:07:52.320Z,657.0000
2023-03-28T09:08:53.767Z,652.6154
2023-03-28T09:09:55.191Z,649.8461
2023-03-28T09:10:56.674Z,643.7692
2023-03-28T09:11:58.048Z,638.3077
2023-03-28T09:12:59.662Z,631.8461
2023-03-28T09:14:00.918Z,633.6923
2023-03-28T09:15:02.361Z,632.7692
2023-03-28T09:16:03.784Z,633.0769
2023-03-28T09:17:05.208Z,639.1539
2023-03-28T09:18:06.827Z,644.0769
2023-03-28T09:19:08.072Z,648.6923
2023-03-28T09:20:09.728Z,655.0000
2023-03-28T09:21:10.926Z,658.2308
2023-03-28T09:22:15.885Z,659.6154
2023-03-28T09:23:13.798Z,666.3846
2023-03-28T09:24:15.166Z,671.0769
2023-03-28T09:25:16.598Z,674.5385
2023-03-28T09:26:18.023Z,678.5385
2023-03-28T09:27:19.478Z,680.6923
2023-03-28T09:28:20.880Z,679.3846
2023-03-28T09:29:22.329Z,681.3077
2023-03-28T09:30:23.760Z,679.6154
2023-03-28T09:31:27.157Z,677.3846
2023-03-28T09:32:26.593Z,674.5385
2023-03-28T09:33:28.038Z,662.6154
2023-03-28T09:34:29.453Z,658.6923
2023-03-28T09:35:30.868Z,657.5385
2023-03-28T09:36:45.596Z,646.7692
2023-03-28T09:37:33.726Z,642.2500
2023-03-28T09:38:35.136Z,640.6154
2023-03-28T09:39:36.615Z,637.0000
2023-03-28T09:40:37.988Z,634.2308
2023-03-28T09:41:39.426Z,629.8461
2023-03-28T09:42:40.846Z,628.0000
2023-03-28T09:43:42.283Z,628.8461
2023-03-28T09:44:52.921Z,628.9231
2023-03-28T09:45:45.164Z,628.1667
2023-03-28T09:46:46.590Z,627.6154
2023-03-28T09:47:48.136Z,622.3077
2023-03-28T09:48:49.652Z,623.6154
2023-03-28T09:49:56.642Z,627.0000
2023-03-28T09:50:52.258Z,627.3333
2023-03-28T09:51:53.679Z,627.6923
2023-03-28T09:52:55.104Z,625.5385
2023-03-28T09:53:56.527Z,622.0769
2023-03-28T09:54:57.981Z,624.4615
2023-03-28T09:56:04.533Z,625.4615
2023-03-28T09:57:00.832Z,630.2500
2023-03-28T09:58:02.328Z,637.2308
2023-03-28T09:59:03.642Z,640.8461
2023-03-28T10:00:05.081Z,645.5385
2023-03-28T10:01:06.517Z,654.1539
2023-03-28T10:02:07.925Z,663.7692
2023-03-28T10:03:09.377Z,670.8461
2023-03-28T10:04:10.778Z,676.1539
2023-03-28T10:05:12.259Z,679.2308
2023-03-28T10:06:13.630Z,682.5385
2023-03-28T10:07:15.058Z,688.0000
2023-03-28T10:08:16.502Z,690.5385
2023-03-28T10:09:17.924Z,690.6154
2023-03-28T10:10:19.388Z,701.0769
2023-03-28T10:11:20.881Z,705.4615
2023-03-28T10:12:22.317Z,709.3077
2023-03-28T10:13:23.743Z,718.6154
2023-03-28T10:14:25.173Z,722.0000
2023-03-28T10:15:26.681Z,728.6154
2023-03-28T10:16:28.052Z,732.9231
2023-03-28T10:17:29.464Z,736.6154
2023-03-28T10:18:30.881Z,736.0769
2023-03-28T10:19:32.297Z,735.3846
2023-03-28T10:20:33.753Z,733.5385
2023-03-28T10:21:35.153Z,735.7692
2023-03-28T10:22:36.575Z,740.3846
2023-03-28T10:23:37.994Z,742.3846
2023-03-28T10:24:39.418Z,744.0769
2023-03-28T10:25:40.842Z,742.7692
2023-03-28T10:26:42.280Z,745.8461
2023-03-28T10:27:43.678Z,752.3846
2023-03-28T10:28:45.121Z,760.6923
2023-03-28T10:29:46.528Z,764.5385
2023-03-28T10:30:48.036Z,770.2308
2023-03-28T10:31:49.389Z,774.6923
2023-03-28T10:32:50.838Z,778.0000
2023-03-28T10:33:52.226Z,781.0000
2023-03-28T10:34:53.663Z,780.7692
2023-03-28T10:35:55.111Z,778.8461
2023-03-28T10:36:56.528Z,781.9231
2023-03-28T10:37:57.945Z,783.5385
2023-03-28T10:38:59.375Z,790.3846
2023-03-28T10:40:00.864Z,795.6154
2023-03-28T10:41:02.455Z,799.1539
2023-03-28T10:42:03.644Z,807.6154
2023-03-28T10:43:05.091Z,810.5385
2023-03-28T10:44:06.517Z,809.9231
2023-03-28T10:45:07.949Z,810.3846
2023-03-28T10:46:09.402Z,811.7692
2023-03-28T10:47:10.794Z,812.6923
2023-03-28T10:48:12.212Z,813.4615
2023-03-28T10:49:13.671Z,815.5385
2023-03-28T10:50:15.061Z,819.3846
2023-03-28T10:51:16.528Z,818.8461
2023-03-28T10:52:17.920Z,819.5385
2023-03-28T10:53:19.372Z,818.6923
2023-03-28T10:54:20.775Z,816.6923
2023-03-28T10:55:22.228Z,818.0769
2023-03-28T10:56:23.632Z,815.2308
2023-03-28T10:57:25.116Z,814.0000
2023-03-28T10:58:26.564Z,812.8461
2023-03-28T10:59:27.915Z,814.5385
2023-03-28T11:00:29.348Z,815.1539
2023-03-28T11:01:33.185Z,813.8461
2023-03-28T11:02:32.315Z,812.1539
2023-03-28T11:03:33.724Z,813.0769
2023-03-28T11:04:35.047Z,811.6154
2023-03-28T11:05:36.461Z,811.3077
2023-03-28T11:06:37.892Z,811.3846
2023-03-28T11:07:39.328Z,813.3846
2023-03-28T11:08:40.760Z,814.2308
2023-03-28T11:09:42.192Z,816.0769
2023-03-28T11:10:43.603Z,821.2308
2023-03-28T11:11:45.056Z,830.7692
2023-03-28T11:13:47.893Z,841.9231
2023-03-28T11:14:49.354Z,846.1539
2023-03-28T11:15:50.792Z,844.2308
2023-03-28T11:16:52.169Z,838.3077
2023-03-28T11:17:53.663Z,839.8461
2023-03-28T11:18:55.010Z,839.6154
2023-03-28T11:19:56.443Z,844.2308
2023-03-28T11:20:58.010Z,850.1539
2023-03-28T11:21:59.275Z,847.4615
2023-03-28T11:23:06.295Z,844.9231
2023-03-28T11:24:02.180Z,845.0000
2023-03-28T11:25:03.546Z,845.3846
2023-03-28T11:26:04.959Z,848.6154
2023-03-28T11:27:15.367Z,849.9231
2023-03-28T11:28:07.800Z,852.8333
2023-03-28T11:29:09.223Z,859.6154
2023-03-28T11:30:10.639Z,856.0769
2023-03-28T11:31:12.069Z,858.9231
2023-03-28T11:32:13.517Z,858.9231
2023-03-28T11:33:14.904Z,854.1539
2023-03-28T11:34:16.361Z,856.9231
2023-03-28T11:35:17.765Z,858.1539
2023-03-28T11:36:19.213Z,859.1539
2023-03-28T11:37:20.613Z,860.6923
2023-03-28T11:38:22.061Z,867.6923
2023-03-28T11:39:23.482Z,868.8461
2023-03-28T11:40:24.895Z,871.5385
2023-03-28T11:41:26.306Z,868.2308
2023-03-28T11:42:27.736Z,867.2308
2023-03-28T11:43:29.177Z,870.3077
2023-03-28T11:44:30.608Z,876.2308
2023-03-28T11:45:47.789Z,877.5385
2023-03-28T11:46:33.469Z,880.2500
2023-03-28T11:47:34.890Z,881.5385
2023-03-28T11:48:36.334Z,878.9231
2023-03-28T11:49:37.698Z,878.5385
2023-03-28T11:50:39.156Z,877.0000